createdAt,value
2019-05-31T00:01:29.191Z,99.90
2019-05-31T00:04:01.634Z,99.90
2019-05-31T00:06:33.658Z,99.90
2019-05-31T00:09:07.094Z,99.90
2019-05-31T00:11:39.708Z,99.90
2019-05-31T00:14:20.598Z,99.90
2019-05-31T00:16:46.978Z,99.90
2019-05-31T00:19:18.742Z,99.90
2019-05-31T00:21:50.621Z,99.90
2019-05-31T00:24:22.362Z,99.90
2019-05-31T00:26:54.448Z,99.90
2019-05-31T00:29:26.298Z,99.90
2019-05-31T00:31:59.369Z,99.90
2019-05-31T00:34:32.257Z,99.90
2019-05-31T00:37:04.054Z,99.90
2019-05-31T00:39:35.838Z,99.90
2019-05-31T00:42:07.584Z,99.90
2019-05-31T00:44:39.301Z,99.90
2019-05-31T00:47:11.352Z,99.90
2019-05-31T00:49:43.061Z,99.90
2019-05-31T00:52:14.801Z,99.90
2019-05-31T00:54:46.625Z,99.90
2019-05-31T00:57:18.329Z,99.90
2019-05-31T00:59:49.977Z,99.90
2019-05-31T01:02:25.634Z,99.90
2019-05-31T01:04:57.402Z,99.90
2019-05-31T01:07:29.520Z,99.90
2019-05-31T01:10:01.469Z,99.90
2019-05-31T01:12:33.580Z,99.90
2019-05-31T01:15:06.417Z,99.90
2019-05-31T01:17:38.183Z,99.90
2019-05-31T01:20:11.418Z,99.90
2019-05-31T01:22:43.145Z,99.90
2019-05-31T01:25:15.020Z,99.90
2019-05-31T01:27:46.727Z,99.90
2019-05-31T01:30:19.168Z,99.90
2019-05-31T01:32:50.900Z,99.90
2019-05-31T01:35:22.646Z,99.90
2019-05-31T01:37:54.346Z,99.90
2019-05-31T01:40:26.097Z,99.90
2019-05-31T01:42:58.187Z,99.90
2019-05-31T01:45:29.944Z,99.90
2019-05-31T01:48:05.582Z,99.90
2019-05-31T01:50:37.566Z,99.90
2019-05-31T01:53:10.135Z,99.90
2019-05-31T01:55:41.988Z,99.90
2019-05-31T01:58:13.745Z,99.90
2019-05-31T02:00:45.588Z,99.90
2019-05-31T02:03:17.390Z,99.90
2019-05-31T02:05:50.135Z,99.90
2019-05-31T02:08:21.869Z,99.90
2019-05-31T02:10:53.576Z,99.90
2019-05-31T02:13:25.721Z,99.90
2019-05-31T02:15:57.604Z,99.90
2019-05-31T02:18:29.359Z,99.90
2019-05-31T02:21:01.071Z,99.90
2019-05-31T02:23:32.774Z,99.90
2019-05-31T02:26:05.057Z,99.90
2019-05-31T02:28:50.231Z,99.90
2019-05-31T02:31:23.851Z,99.90
2019-05-31T02:33:56.181Z,99.90
2019-05-31T02:36:28.057Z,99.90
2019-05-31T02:38:59.745Z,99.90
2019-05-31T02:41:31.448Z,99.90
2019-05-31T02:44:04.216Z,99.90
2019-05-31T02:46:36.000Z,99.90
2019-05-31T02:49:09.927Z,99.90
2019-05-31T02:51:42.328Z,99.90
2019-05-31T02:54:14.785Z,99.90
2019-05-31T02:56:48.717Z,99.90
2019-05-31T02:59:22.792Z,99.90
2019-05-31T03:01:55.341Z,99.90
2019-05-31T03:04:28.420Z,99.90
2019-05-31T03:07:01.066Z,99.90
2019-05-31T03:09:33.470Z,99.90
2019-05-31T03:12:06.603Z,99.90
2019-05-31T03:14:38.355Z,99.90
2019-05-31T03:17:10.955Z,99.90
2019-05-31T03:19:42.881Z,99.90
2019-05-31T03:22:16.538Z,99.90
2019-05-31T03:24:49.050Z,99.90
2019-05-31T03:27:23.062Z,99.90
2019-05-31T03:29:55.005Z,99.90
2019-05-31T03:32:37.340Z,99.90
2019-05-31T03:35:00.052Z,99.90
2019-05-31T03:37:31.675Z,99.90
2019-05-31T03:40:03.407Z,99.90
2019-05-31T03:42:35.094Z,99.90
2019-05-31T03:45:07.189Z,99.90
2019-05-31T03:47:38.897Z,99.90
2019-05-31T03:50:12.147Z,99.90
2019-05-31T03:52:44.407Z,99.90
2019-05-31T03:55:17.435Z,99.90
2019-05-31T03:57:49.884Z,99.90
2019-05-31T04:00:44.210Z,99.90
2019-05-31T04:03:16.450Z,99.90
2019-05-31T04:05:48.221Z,99.90
2019-05-31T04:08:20.950Z,99.90
2019-05-31T04:10:53.690Z,99.90
2019-05-31T04:13:25.612Z,99.90
2019-05-31T04:15:58.759Z,99.90
2019-05-31T04:18:34.871Z,99.90
2019-05-31T04:21:04.075Z,99.90
2019-05-31T04:23:36.886Z,99.90
2019-05-31T04:26:08.648Z,99.90
2019-05-31T04:28:40.313Z,99.90
2019-05-31T04:31:11.990Z,99.90
2019-05-31T04:33:43.637Z,99.90
2019-05-31T04:36:16.092Z,99.90
2019-05-31T04:38:48.213Z,99.90
2019-05-31T04:41:20.571Z,99.90
2019-05-31T04:43:57.995Z,99.90
2019-05-31T04:46:26.916Z,99.90
2019-05-31T04:48:58.611Z,99.90
2019-05-31T04:51:30.272Z,99.90
2019-05-31T04:54:01.893Z,99.90
2019-05-31T04:56:33.560Z,99.90
2019-05-31T04:59:05.247Z,99.90
2019-05-31T05:01:36.933Z,99.90
2019-05-31T05:04:12.309Z,99.90
2019-05-31T05:06:42.020Z,99.90
2019-05-31T05:09:13.670Z,99.90
2019-05-31T05:11:45.370Z,99.90
2019-05-31T05:14:18.489Z,99.90
2019-05-31T05:16:50.218Z,99.90
2019-05-31T05:19:22.828Z,99.90
2019-05-31T05:21:54.628Z,99.90
2019-05-31T05:24:27.193Z,99.90
2019-05-31T05:26:58.983Z,99.90
2019-05-31T05:29:30.646Z,99.90
2019-05-31T05:32:02.340Z,99.90
2019-05-31T05:34:34.137Z,99.90
2019-05-31T05:37:06.027Z,99.90
2019-05-31T05:39:37.810Z,99.90
2019-05-31T05:42:09.466Z,99.90
2019-05-31T05:44:41.123Z,99.90
2019-05-31T05:47:12.809Z,99.90
2019-05-31T05:49:44.528Z,99.90
2019-05-31T05:52:16.203Z,99.90
2019-05-31T05:54:47.883Z,99.90
2019-05-31T05:57:20.661Z,99.90
2019-05-31T05:59:52.311Z,99.90
2019-05-31T06:02:25.509Z,99.90
2019-05-31T06:04:57.271Z,99.90
2019-05-31T06:07:30.353Z,99.90
2019-05-31T06:10:02.114Z,99.90
2019-05-31T06:12:35.170Z,99.90
2019-05-31T06:15:07.385Z,99.90
2019-05-31T06:17:39.777Z,99.90
2019-05-31T06:20:12.003Z,99.90
2019-05-31T06:22:44.639Z,99.90
2019-05-31T06:25:16.456Z,99.90
2019-05-31T06:27:48.130Z,99.90
2019-05-31T06:30:21.124Z,99.90
2019-05-31T06:32:52.844Z,99.90
2019-05-31T06:35:24.792Z,99.90
2019-05-31T06:37:56.555Z,99.90
2019-05-31T06:40:29.209Z,99.90
2019-05-31T06:43:01.039Z,99.90
2019-05-31T06:45:32.916Z,99.90
2019-05-31T06:48:18.882Z,99.90
2019-05-31T06:50:38.907Z,99.90
2019-05-31T06:53:10.654Z,99.90
2019-05-31T06:55:42.288Z,99.90
2019-05-31T06:58:13.978Z,99.90
2019-05-31T07:00:45.901Z,99.90
2019-05-31T07:03:17.704Z,99.90
2019-05-31T07:05:56.577Z,99.90
2019-05-31T07:08:22.856Z,99.90
2019-05-31T07:10:54.478Z,99.90
2019-05-31T07:13:27.648Z,99.90
2019-05-31T07:16:00.561Z,99.90
2019-05-31T07:18:40.883Z,99.90
2019-05-31T07:21:07.920Z,99.90
2019-05-31T07:23:42.971Z,99.90
2019-05-31T07:26:13.072Z,99.90
2019-05-31T07:28:50.851Z,99.90
2019-05-31T07:31:22.794Z,99.90
2019-05-31T07:33:54.548Z,99.90
2019-05-31T07:36:26.268Z,99.90
2019-05-31T07:38:59.256Z,99.90
2019-05-31T07:41:31.269Z,99.90
2019-05-31T07:44:03.091Z,99.90
2019-05-31T07:46:53.484Z,99.90
2019-05-31T07:49:08.398Z,99.90
2019-05-31T07:51:40.528Z,99.90
2019-05-31T07:54:12.373Z,99.90
2019-05-31T07:56:44.088Z,99.90
2019-05-31T07:59:15.963Z,99.90
2019-05-31T08:01:47.739Z,99.90
2019-05-31T08:04:19.462Z,99.90
2019-05-31T08:06:51.348Z,99.90
2019-05-31T08:09:23.067Z,99.90
2019-05-31T08:11:54.766Z,99.90
2019-05-31T08:14:27.253Z,99.90
2019-05-31T08:16:59.379Z,99.90
2019-05-31T08:19:31.494Z,99.90
2019-05-31T08:22:03.722Z,99.90
2019-05-31T08:24:36.401Z,99.90
2019-05-31T08:27:10.487Z,99.90
2019-05-31T08:29:47.877Z,99.90
2019-05-31T08:32:18.986Z,99.90
2019-05-31T08:34:51.385Z,99.90
2019-05-31T08:37:23.213Z,99.90
2019-05-31T08:39:54.944Z,99.90
2019-05-31T08:42:26.644Z,99.90
2019-05-31T08:45:06.554Z,99.90
2019-05-31T08:47:32.358Z,99.70
2019-05-31T08:50:06.571Z,99.90
2019-05-31T08:52:45.742Z,99.00
2019-05-31T08:55:14.887Z,99.90
2019-05-31T08:57:46.653Z,95.10
2019-05-31T09:00:18.462Z,93.60
2019-05-31T09:02:51.283Z,91.90
2019-05-31T09:05:23.059Z,88.10
2019-05-31T09:07:54.846Z,85.20
2019-05-31T09:10:26.567Z,90.40
2019-05-31T09:12:58.262Z,85.50
2019-05-31T09:15:31.504Z,76.50
2019-05-31T09:18:03.401Z,76.20
2019-05-31T09:20:36.218Z,78.90
2019-05-31T09:23:08.505Z,76.30
2019-05-31T09:25:41.094Z,68.60
2019-05-31T09:28:12.880Z,64.90
2019-05-31T09:30:44.644Z,58.10
2019-05-31T09:33:16.500Z,55.00
2019-05-31T09:35:49.297Z,52.40
2019-05-31T09:38:20.973Z,48.10
2019-05-31T09:40:52.951Z,46.70
2019-05-31T09:43:24.668Z,46.70
2019-05-31T09:45:56.373Z,42.80
2019-05-31T09:48:28.248Z,38.70
2019-05-31T09:50:59.999Z,40.10
2019-05-31T09:53:32.814Z,37.00
2019-05-31T09:56:05.489Z,38.00
2019-05-31T09:58:37.898Z,34.50
2019-05-31T10:01:09.615Z,34.30
2019-05-31T10:03:42.747Z,30.60
2019-05-31T10:06:14.606Z,25.40
2019-05-31T10:08:46.498Z,25.20
2019-05-31T10:11:18.188Z,24.90
2019-05-31T10:13:49.882Z,24.50
2019-05-31T10:16:21.780Z,23.90
2019-05-31T10:18:53.517Z,22.30
2019-05-31T10:21:26.188Z,23.80
2019-05-31T10:23:58.427Z,22.40
2019-05-31T10:26:33.359Z,22.90
2019-05-31T10:29:22.279Z,24.30
2019-05-31T10:32:00.996Z,24.70
2019-05-31T10:34:34.664Z,24.40
2019-05-31T10:37:06.729Z,24.20
2019-05-31T10:39:39.769Z,20.80
2019-05-31T10:42:19.644Z,23.00
2019-05-31T10:44:50.210Z,24.90
2019-05-31T10:47:23.038Z,15.10
2019-05-31T10:49:55.224Z,12.50
2019-05-31T10:52:27.054Z,12.30
2019-05-31T10:54:59.138Z,10.90
2019-05-31T10:57:30.927Z,8.30
2019-05-31T11:00:05.884Z,9.20
2019-05-31T11:02:38.365Z,9.60
2019-05-31T11:05:10.949Z,6.80
2019-05-31T11:07:42.959Z,6.20
2019-05-31T11:10:16.566Z,7.80
2019-05-31T11:12:48.540Z,7.30
2019-05-31T11:15:20.658Z,7.70
2019-05-31T11:17:55.505Z,6.10
2019-05-31T11:20:29.076Z,5.80
2019-05-31T11:23:01.000Z,2.10
2019-05-31T11:25:32.734Z,1.00
2019-05-31T11:28:04.918Z,1.10
2019-05-31T11:30:38.041Z,1.00
2019-05-31T11:33:09.978Z,1.00
2019-05-31T11:35:43.980Z,1.00
2019-05-31T11:38:15.476Z,1.00
2019-05-31T11:40:47.576Z,1.00
2019-05-31T11:43:22.509Z,1.00
2019-05-31T11:45:54.634Z,1.00
2019-05-31T11:48:26.566Z,1.00
2019-05-31T11:50:58.334Z,1.00
2019-05-31T11:53:39.851Z,1.00
2019-05-31T11:56:08.577Z,1.00
2019-05-31T11:58:41.576Z,1.00
2019-05-31T12:01:13.492Z,1.00
2019-05-31T12:03:46.111Z,1.00
2019-05-31T12:06:19.799Z,4.30
2019-05-31T12:08:51.606Z,4.70
2019-05-31T12:11:23.664Z,6.90
2019-05-31T12:13:55.503Z,9.00
2019-05-31T12:16:27.316Z,10.90
2019-05-31T12:19:02.901Z,12.90
2019-05-31T12:21:46.835Z,12.30
2019-05-31T12:24:08.263Z,9.20
2019-05-31T12:26:41.388Z,8.20
2019-05-31T12:29:13.823Z,8.00
2019-05-31T12:31:45.933Z,7.10
2019-05-31T12:34:18.086Z,5.20
2019-05-31T12:36:52.998Z,4.40
2019-05-31T12:39:27.938Z,5.00
2019-05-31T12:42:02.132Z,2.90
2019-05-31T12:44:34.001Z,1.20
2019-05-31T12:47:06.717Z,2.20
2019-05-31T12:49:40.167Z,1.00
2019-05-31T12:52:12.037Z,1.00
2019-05-31T12:54:45.934Z,1.00
2019-05-31T12:57:17.655Z,1.00
2019-05-31T12:59:51.176Z,1.00
2019-05-31T13:02:23.059Z,1.00
2019-05-31T13:04:56.030Z,1.00
2019-05-31T13:07:30.487Z,1.00
2019-05-31T13:10:03.929Z,1.00
2019-05-31T13:12:38.304Z,1.00
2019-05-31T13:15:13.856Z,1.00
2019-05-31T13:17:48.781Z,1.00
2019-05-31T13:20:25.959Z,1.00
2019-05-31T13:22:58.606Z,1.00
2019-05-31T13:25:33.824Z,1.00
2019-05-31T13:28:10.856Z,1.00
2019-05-31T13:30:42.605Z,1.00
2019-05-31T13:33:14.536Z,1.00
2019-05-31T13:35:46.728Z,1.00
2019-05-31T13:38:18.534Z,1.00
2019-05-31T13:40:51.400Z,1.00
2019-05-31T13:43:24.523Z,1.00
2019-05-31T13:45:56.400Z,1.00
2019-05-31T13:48:28.736Z,1.00
2019-05-31T13:51:01.779Z,1.00
2019-05-31T13:53:33.490Z,1.00
2019-05-31T13:56:05.249Z,1.00
2019-05-31T13:58:37.208Z,1.00
2019-05-31T14:01:09.218Z,1.00
2019-05-31T14:03:41.236Z,1.00
2019-05-31T14:06:13.174Z,1.00
2019-05-31T14:08:45.003Z,1.00
2019-05-31T14:11:17.787Z,1.00
2019-05-31T14:13:50.325Z,1.00
2019-05-31T14:16:24.333Z,1.00
2019-05-31T14:18:56.933Z,1.00
2019-05-31T14:21:28.929Z,1.00
2019-05-31T14:24:00.990Z,1.00
2019-05-31T14:26:32.850Z,1.00
2019-05-31T14:29:04.674Z,1.00
2019-05-31T14:31:39.500Z,1.00
2019-05-31T14:34:14.758Z,1.00
2019-05-31T14:36:44.742Z,1.00
2019-05-31T14:39:16.380Z,1.00
2019-05-31T14:41:48.638Z,1.00
2019-05-31T14:44:20.882Z,2.50
2019-05-31T14:46:54.335Z,1.10
2019-05-31T14:49:30.914Z,1.70
2019-05-31T14:52:03.168Z,1.90
2019-05-31T14:54:35.021Z,3.90
2019-05-31T14:57:06.876Z,3.10
2019-05-31T14:59:38.882Z,3.30
2019-05-31T15:02:10.681Z,4.50
2019-05-31T15:04:45.435Z,5.30
2019-05-31T15:07:20.974Z,2.50
2019-05-31T15:09:53.828Z,1.00
2019-05-31T15:12:27.678Z,1.00
2019-05-31T15:15:00.244Z,1.00
2019-05-31T15:17:33.276Z,1.00
2019-05-31T15:20:05.553Z,1.00
2019-05-31T15:22:37.660Z,1.00
2019-05-31T15:25:10.023Z,1.00
2019-05-31T15:27:43.406Z,1.00
2019-05-31T15:30:49.652Z,1.00
2019-05-31T15:34:07.401Z,1.00
2019-05-31T15:36:42.993Z,1.00
2019-05-31T15:39:23.579Z,1.00
2019-05-31T15:42:05.104Z,3.70
2019-05-31T15:44:37.147Z,1.00
2019-05-31T15:47:12.276Z,1.80
2019-05-31T15:49:43.662Z,1.00
2019-05-31T15:52:15.461Z,1.00
2019-05-31T15:54:47.230Z,1.40
2019-05-31T15:57:19.029Z,1.00
2019-05-31T15:59:50.790Z,1.40
2019-05-31T16:02:24.847Z,2.20
2019-05-31T16:04:56.323Z,3.50
2019-05-31T16:07:28.266Z,5.30
2019-05-31T16:10:00.763Z,5.20
2019-05-31T16:12:32.638Z,7.10
2019-05-31T16:15:06.825Z,7.90
2019-05-31T16:17:40.494Z,7.10
2019-05-31T16:20:16.761Z,7.30
2019-05-31T16:22:48.391Z,5.60
2019-05-31T16:25:20.262Z,7.40
2019-05-31T16:27:52.030Z,5.50
2019-05-31T16:30:23.712Z,3.90
2019-05-31T16:32:55.523Z,4.50
2019-05-31T16:35:27.416Z,4.90
2019-05-31T16:38:00.152Z,4.50
2019-05-31T16:40:36.648Z,5.90
2019-05-31T16:43:08.778Z,6.30
2019-05-31T16:45:40.883Z,5.80
2019-05-31T16:48:12.874Z,8.30
2019-05-31T16:50:44.616Z,10.70
2019-05-31T16:53:16.480Z,9.40
2019-05-31T16:55:48.435Z,11.30
2019-05-31T16:58:23.072Z,10.50
2019-05-31T17:00:57.668Z,10.30
2019-05-31T17:03:29.478Z,11.80
2019-05-31T17:06:02.504Z,14.00
2019-05-31T17:08:34.551Z,13.60
2019-05-31T17:11:07.207Z,14.40
2019-05-31T17:13:39.315Z,13.20
2019-05-31T17:16:14.793Z,13.30
2019-05-31T17:18:44.696Z,13.60
2019-05-31T17:21:16.697Z,13.90
2019-05-31T17:23:48.498Z,12.20
2019-05-31T17:26:20.338Z,12.00
2019-05-31T17:28:52.423Z,12.60
2019-05-31T17:31:24.220Z,12.40
2019-05-31T17:33:55.992Z,12.10
2019-05-31T17:36:28.008Z,11.40
2019-05-31T17:38:59.800Z,10.70
2019-05-31T17:41:31.536Z,10.50
2019-05-31T17:44:03.928Z,10.30
2019-05-31T17:46:35.752Z,9.40
2019-05-31T17:49:08.134Z,9.60
2019-05-31T17:51:39.850Z,8.10
2019-05-31T17:54:12.483Z,8.60
2019-05-31T17:56:44.161Z,8.00
2019-05-31T17:59:16.870Z,8.30
2019-05-31T18:01:48.692Z,7.40
2019-05-31T18:04:20.350Z,5.60
2019-05-31T18:06:52.152Z,6.90
2019-05-31T18:09:24.016Z,6.20
2019-05-31T18:11:55.778Z,7.30
2019-05-31T18:14:27.609Z,8.10
2019-05-31T18:16:59.397Z,9.20
2019-05-31T18:19:31.244Z,10.70
2019-05-31T18:22:02.980Z,11.00
2019-05-31T18:24:34.684Z,11.30
2019-05-31T18:27:07.635Z,10.20
2019-05-31T18:29:40.953Z,11.00
2019-05-31T18:32:12.721Z,12.00
2019-05-31T18:34:44.443Z,13.20
2019-05-31T18:37:17.121Z,14.00
2019-05-31T18:39:49.010Z,15.10
2019-05-31T18:42:22.147Z,15.70
2019-05-31T18:44:54.016Z,16.60
2019-05-31T18:47:26.131Z,17.80
2019-05-31T18:49:57.846Z,18.80
2019-05-31T18:52:29.738Z,17.80
2019-05-31T18:55:01.788Z,19.60
2019-05-31T18:57:33.705Z,20.10
2019-05-31T19:00:06.426Z,21.40
2019-05-31T19:02:38.271Z,20.90
2019-05-31T19:05:10.881Z,21.90
2019-05-31T19:07:42.940Z,22.00
2019-05-31T19:10:15.203Z,22.10
2019-05-31T19:12:47.293Z,21.80
2019-05-31T19:15:21.843Z,23.20
2019-05-31T19:17:52.513Z,25.30
2019-05-31T19:20:24.299Z,25.80
2019-05-31T19:22:56.115Z,25.40
2019-05-31T19:25:27.863Z,25.90
2019-05-31T19:27:59.634Z,26.90
2019-05-31T19:30:42.815Z,28.10
2019-05-31T19:33:16.470Z,28.40
2019-05-31T19:35:49.679Z,28.30
2019-05-31T19:38:22.408Z,27.50
2019-05-31T19:40:55.091Z,28.40
2019-05-31T19:43:27.172Z,28.70
2019-05-31T19:45:59.052Z,29.20
2019-05-31T19:48:31.764Z,29.70
2019-05-31T19:51:03.616Z,31.70
2019-05-31T19:53:35.466Z,32.60
2019-05-31T19:56:13.522Z,32.40
2019-05-31T19:58:40.835Z,32.90
2019-05-31T20:01:12.673Z,32.70
2019-05-31T20:03:44.547Z,34.70
2019-05-31T20:06:16.366Z,33.20
2019-05-31T20:08:49.345Z,35.30
2019-05-31T20:11:22.181Z,48.60
2019-05-31T20:13:55.153Z,37.70
2019-05-31T20:16:30.900Z,37.40
2019-05-31T20:19:00.776Z,39.30
2019-05-31T20:21:33.621Z,40.30
2019-05-31T20:24:05.816Z,41.90
2019-05-31T20:26:37.529Z,43.30
2019-05-31T20:29:09.549Z,42.20
2019-05-31T20:31:41.422Z,44.20
2019-05-31T20:34:13.321Z,44.70
2019-05-31T20:36:47.587Z,45.80
2019-05-31T20:42:29.018Z,45.90
2019-05-31T20:44:27.015Z,47.30
2019-05-31T20:46:59.014Z,47.90
2019-05-31T20:49:30.964Z,50.30
2019-05-31T20:52:02.629Z,49.20
2019-05-31T20:54:34.748Z,50.80
2019-05-31T20:57:06.714Z,52.00
2019-05-31T20:59:39.696Z,53.20
2019-05-31T21:02:12.262Z,55.40
2019-05-31T21:04:44.122Z,56.00
2019-05-31T21:07:15.875Z,57.50
2019-05-31T21:09:47.604Z,57.90
2019-05-31T21:12:19.707Z,74.20
2019-05-31T21:14:51.466Z,62.60
2019-05-31T21:17:24.134Z,63.70
2019-05-31T21:19:56.283Z,63.20
2019-05-31T21:22:29.166Z,63.30
2019-05-31T21:25:01.855Z,63.70
2019-05-31T21:27:33.946Z,63.40
2019-05-31T21:30:06.859Z,65.90
2019-05-31T21:32:38.657Z,65.40
2019-05-31T21:35:10.796Z,65.60
2019-05-31T21:37:42.540Z,66.10
2019-05-31T21:40:14.319Z,65.50
2019-05-31T21:42:46.033Z,66.10
2019-05-31T21:45:18.022Z,68.00
2019-05-31T21:47:49.769Z,68.70
2019-05-31T21:50:21.441Z,71.30
2019-05-31T21:52:53.346Z,70.80
2019-05-31T21:55:25.196Z,71.50
2019-05-31T21:57:56.949Z,72.70
2019-05-31T22:00:33.167Z,72.50
2019-05-31T22:03:06.839Z,72.90
2019-05-31T22:05:38.792Z,73.80
2019-05-31T22:08:10.548Z,75.60
2019-05-31T22:10:42.199Z,75.70
2019-05-31T22:13:13.908Z,77.00
2019-05-31T22:15:45.707Z,77.90
2019-05-31T22:18:18.480Z,91.00
2019-05-31T22:20:50.150Z,78.60
2019-05-31T22:23:21.850Z,76.80
2019-05-31T22:25:54.781Z,76.70
2019-05-31T22:28:26.512Z,77.30
2019-05-31T22:31:10.299Z,78.10
2019-05-31T22:33:41.965Z,77.80
2019-05-31T22:36:13.700Z,75.90
2019-05-31T22:38:45.397Z,76.40
2019-05-31T22:41:17.056Z,76.30
2019-05-31T22:43:48.742Z,77.30
2019-05-31T22:46:20.810Z,76.70
2019-05-31T22:48:52.552Z,77.60
2019-05-31T22:51:24.204Z,81.70
2019-05-31T22:53:55.924Z,82.50
2019-05-31T22:56:27.793Z,84.60
2019-05-31T22:58:59.483Z,85.70
2019-05-31T23:01:32.201Z,85.50
2019-05-31T23:04:03.932Z,88.60
2019-05-31T23:06:36.886Z,88.40
2019-05-31T23:09:09.200Z,87.90
2019-05-31T23:11:40.820Z,88.60
2019-05-31T23:14:12.546Z,88.80
2019-05-31T23:16:44.413Z,90.70
2019-05-31T23:19:16.202Z,92.60
2019-05-31T23:21:47.877Z,92.90
2019-05-31T23:24:19.617Z,94.50
2019-05-31T23:26:51.291Z,94.50
2019-05-31T23:29:23.007Z,99.90
2019-05-31T23:31:54.789Z,97.20
2019-05-31T23:34:26.510Z,97.40
2019-05-31T23:36:58.181Z,98.30
2019-05-31T23:39:29.853Z,98.20
2019-05-31T23:42:01.543Z,99.90
2019-05-31T23:44:33.244Z,99.90
2019-05-31T23:47:04.932Z,99.90
2019-05-31T23:49:36.837Z,99.90
2019-05-31T23:52:08.604Z,99.90
2019-05-31T23:54:41.487Z,99.90
2019-05-31T23:57:13.581Z,99.90
2019-05-31T23:59:46.267Z,99.90
